Main page
METAR-TAF:

METAR-TAF

Airports :

Hale County Airport

Plainview, Texas, United States

latitude: 34-10-05N, longitude: 101-43-02W, elevation: 3372 ft

Current weather observation

The report was made 10 minutes ago, at 15:15 UTC
Wind 10 mph from the Southwest
Temperature 55°F
Humidity 62%
Pressure 30.17 in. Hg
Visibility: 10 miles
Clear sky

METAR: KPVW 221515Z AUTO 23009KT 10SM CLR 13/06 A3017 RMK AO2 T01250060

Time: 10:25 (15:25 UTC)

Forecast

The report was made 4 hours and 5 minutes ago, at 11:20 UTC
Forecast valid from 22 at 12 UTC to 23 at 12 UTC
Wind 13 mph from the Southwest
Visibility: 6 miles
Few clouds at a height of 10000 ft
Scattered clouds at a height of 25000 ft

TAF: KPVW 221120Z 2212/2312 22011KT P6SM FEW100 SCT250

Weather observations and forecasts of more than 4000 airports (METAR and TAF reports).

The available stations are represented by yellow and red dots on the map.

Hover mouse over dot to see the name of the station.

Then click to see weather observations and forecasts.

To change the map : click on the green buttons with a black cross to zoom in, on the green button with a dash to zoom out, or on the green arrows for adjacent maps.


METAR-TAF: